createdAt,value
2022-10-08T00:01:42.984Z,1152
2022-10-08T00:07:01.485Z,1137
2022-10-08T00:12:20.252Z,1123
2022-10-08T00:17:38.458Z,1124
2022-10-08T00:22:56.657Z,1121
2022-10-08T00:28:15.167Z,1128
2022-10-08T00:33:33.112Z,1136
2022-10-08T00:38:51.624Z,1132
2022-10-08T00:44:10.361Z,1130
2022-10-08T00:49:28.603Z,1127
2022-10-08T00:54:46.509Z,1128
2022-10-08T01:00:05.033Z,1121
2022-10-08T01:05:23.806Z,1121
2022-10-08T01:10:41.990Z,1124
2022-10-08T01:15:59.981Z,1128
2022-10-08T01:21:18.560Z,1126
2022-10-08T01:26:37.303Z,1124
2022-10-08T01:31:55.548Z,1130
2022-10-08T01:37:13.769Z,1122
2022-10-08T01:42:31.692Z,1125
2022-10-08T01:47:50.167Z,1125
2022-10-08T01:53:08.418Z,1119
2022-10-08T01:58:26.691Z,1123
2022-10-08T02:03:45.193Z,1128
2022-10-08T02:09:03.714Z,1126
2022-10-08T02:14:21.629Z,1122
2022-10-08T02:19:40.119Z,1121
2022-10-08T02:24:58.649Z,1119
2022-10-08T02:30:16.820Z,1111
2022-10-08T02:35:35.025Z,1118
2022-10-08T02:40:53.822Z,1116
2022-10-08T02:46:12.613Z,1119
2022-10-08T02:51:31.037Z,1119
2022-10-08T02:56:49.532Z,1121
2022-10-08T03:02:08.310Z,1120
2022-10-08T03:07:26.643Z,1120
2022-10-08T03:12:45.528Z,1127
2022-10-08T03:18:04.423Z,1125
2022-10-08T03:23:22.643Z,1127
2022-10-08T03:28:41.170Z,1121
2022-10-08T03:33:59.734Z,1119
2022-10-08T03:39:18.189Z,1119
2022-10-08T03:44:36.703Z,1118
2022-10-08T03:49:55.202Z,1122
2022-10-08T03:55:13.686Z,1121
2022-10-08T04:00:31.904Z,1124
2022-10-08T04:05:50.648Z,1124
2022-10-08T04:11:09.155Z,1121
2022-10-08T04:16:27.657Z,1122
2022-10-08T04:21:45.845Z,1125
2022-10-08T04:27:04.616Z,1119
2022-10-08T04:32:22.869Z,1120
2022-10-08T04:37:41.037Z,1121
2022-10-08T04:42:59.255Z,1118
2022-10-08T04:48:18.037Z,1119
2022-10-08T04:53:36.488Z,1121
2022-10-08T04:58:55.319Z,1129
2022-10-08T05:04:13.865Z,1124
2022-10-08T05:09:32.333Z,1123
2022-10-08T05:14:50.828Z,1122
2022-10-08T05:20:09.084Z,1123
2022-10-08T05:25:26.978Z,1120
2022-10-08T05:30:45.521Z,1113
2022-10-08T05:36:04.315Z,1121
2022-10-08T05:41:22.820Z,1133
2022-10-08T05:46:41.608Z,1141
2022-10-08T05:52:00.123Z,1143
2022-10-08T05:57:18.872Z,1150
2022-10-08T06:02:37.153Z,1156
2022-10-08T06:07:55.979Z,1148
2022-10-08T06:13:14.502Z,1087
2022-10-08T06:18:32.960Z,1015
2022-10-08T06:23:51.475Z,960
2022-10-08T06:29:09.941Z,912
2022-10-08T06:34:28.161Z,921
2022-10-08T06:39:48.493Z,933
2022-10-08T06:45:07.013Z,685
2022-10-08T06:50:25.783Z,594
2022-10-08T06:55:44.100Z,535
2022-10-08T07:01:02.940Z,540
2022-10-08T07:06:21.926Z,508
2022-10-08T07:11:40.399Z,478
2022-10-08T07:16:59.362Z,457
2022-10-08T07:22:18.157Z,500
2022-10-08T07:27:37.450Z,467
2022-10-08T07:33:02.885Z,470
2022-10-08T07:38:21.638Z,553
2022-10-08T07:43:40.156Z,593
2022-10-08T07:48:58.707Z,619
2022-10-08T07:54:17.425Z,611
2022-10-08T07:59:36.206Z,610
2022-10-08T08:04:54.940Z,601
2022-10-08T08:10:13.729Z,578
2022-10-08T08:15:32.493Z,603
2022-10-08T08:20:51.096Z,608
2022-10-08T08:26:09.856Z,599
2022-10-08T08:31:28.719Z,575
2022-10-08T08:36:47.497Z,587
2022-10-08T08:42:06.311Z,592
2022-10-08T08:47:24.781Z,584
2022-10-08T08:52:43.521Z,588
2022-10-08T08:58:03.625Z,596
2022-10-08T09:03:13.178Z,573
2022-10-08T09:08:16.028Z,547
2022-10-08T09:13:34.235Z,546
2022-10-08T09:18:52.747Z,540
2022-10-08T09:24:11.502Z,524
2022-10-08T09:29:29.991Z,560
2022-10-08T09:34:48.225Z,580
2022-10-08T09:40:06.678Z,511
2022-10-08T09:45:25.195Z,463
2022-10-08T09:50:43.956Z,462
2022-10-08T09:56:02.141Z,512
2022-10-08T10:01:20.407Z,531
2022-10-08T10:06:38.659Z,529
2022-10-08T10:11:57.132Z,516
2022-10-08T10:17:15.595Z,536
2022-10-08T10:22:34.122Z,549
2022-10-08T10:27:52.585Z,502
2022-10-08T10:33:10.522Z,488
2022-10-08T10:38:29.275Z,451
2022-10-08T10:43:47.451Z,417
2022-10-08T10:49:05.958Z,398
2022-10-08T10:54:24.727Z,394
2022-10-08T10:59:27.854Z,400
2022-10-08T11:04:46.044Z,410
2022-10-08T11:10:04.585Z,399
2022-10-08T11:15:22.741Z,417
2022-10-08T11:20:40.667Z,422
2022-10-08T11:26:23.285Z,416
2022-10-08T11:31:41.972Z,434
2022-10-08T11:37:00.203Z,404
2022-10-08T11:42:18.964Z,404
2022-10-08T11:47:21.245Z,413
2022-10-08T11:52:40.035Z,416
2022-10-08T11:58:13.785Z,390
2022-10-08T12:03:32.128Z,436
2022-10-08T12:08:51.259Z,448
2022-10-08T12:14:10.049Z,411
2022-10-08T12:19:28.490Z,414
2022-10-08T12:24:50.161Z,472
2022-10-08T12:29:54.712Z,506
2022-10-08T12:35:12.945Z,492
2022-10-08T12:40:31.458Z,424
2022-10-08T12:45:50.286Z,428
2022-10-08T12:51:08.481Z,431
2022-10-08T12:56:26.955Z,397
2022-10-08T13:01:29.894Z,389
2022-10-08T13:06:48.584Z,384
2022-10-08T13:12:07.498Z,452
2022-10-08T13:17:26.288Z,495
2022-10-08T13:22:44.429Z,455
2022-10-08T13:27:47.273Z,464
2022-10-08T13:33:06.365Z,482
2022-10-08T13:38:24.852Z,505
2022-10-08T13:43:43.221Z,544
2022-10-08T13:49:01.746Z,514
2022-10-08T13:54:20.221Z,486
2022-10-08T13:59:25.902Z,432
2022-10-08T14:04:49.397Z,409
2022-10-08T14:10:07.852Z,413
2022-10-08T14:15:26.383Z,471
2022-10-08T14:20:44.929Z,554
2022-10-08T14:26:03.114Z,632
2022-10-08T14:31:21.646Z,664
2022-10-08T14:36:40.354Z,682
2022-10-08T14:41:58.875Z,659
2022-10-08T14:47:17.058Z,535
2022-10-08T14:52:37.408Z,473
2022-10-08T14:58:02.956Z,445
2022-10-08T15:03:21.130Z,428
2022-10-08T15:08:39.775Z,421
2022-10-08T15:13:57.801Z,428
2022-10-08T15:19:00.932Z,422
2022-10-08T15:24:19.167Z,425
2022-10-08T15:29:37.926Z,432
2022-10-08T15:34:56.717Z,444
2022-10-08T15:39:59.851Z,458
2022-10-08T15:45:02.974Z,468
2022-10-08T15:50:21.492Z,478
2022-10-08T15:55:40.002Z,521
2022-10-08T16:00:58.183Z,477
2022-10-08T16:06:16.391Z,466
2022-10-08T16:11:35.188Z,461
2022-10-08T16:16:53.399Z,460
2022-10-08T16:22:12.213Z,484
2022-10-08T16:27:30.992Z,545
2022-10-08T16:32:49.591Z,520
2022-10-08T16:38:09.074Z,526
2022-10-08T16:43:27.578Z,548
2022-10-08T16:48:45.835Z,558
2022-10-08T16:54:03.708Z,541
2022-10-08T16:59:22.235Z,535
2022-10-08T17:04:40.706Z,575
2022-10-08T17:09:59.256Z,606
2022-10-08T17:15:17.857Z,655
2022-10-08T17:20:36.112Z,683
2022-10-08T17:25:54.607Z,679
2022-10-08T17:31:13.106Z,653
2022-10-08T17:36:31.726Z,647
2022-10-08T17:41:50.476Z,629
2022-10-08T17:47:09.260Z,629
2022-10-08T17:52:27.734Z,651
2022-10-08T17:57:46.200Z,651
2022-10-08T18:03:04.518Z,649
2022-10-08T18:08:23.093Z,650
2022-10-08T18:13:41.560Z,653
2022-10-08T18:19:02.763Z,653
2022-10-08T18:24:26.964Z,648
2022-10-08T18:29:45.757Z,645
2022-10-08T18:35:04.262Z,634
2022-10-08T18:40:22.743Z,625
2022-10-08T18:45:41.177Z,618
2022-10-08T18:50:59.429Z,619
2022-10-08T18:56:17.657Z,626
2022-10-08T19:01:36.302Z,618
2022-10-08T19:06:55.274Z,622
2022-10-08T19:12:13.459Z,606
2022-10-08T19:17:32.197Z,601
2022-10-08T19:22:50.956Z,605
2022-10-08T19:28:09.621Z,602
2022-10-08T19:33:27.962Z,611
2022-10-08T19:38:46.757Z,623
2022-10-08T19:43:49.701Z,634
2022-10-08T19:49:08.464Z,652
2022-10-08T19:54:26.983Z,648
2022-10-08T19:59:45.154Z,644
2022-10-08T20:05:03.911Z,650
2022-10-08T20:10:22.692Z,647
2022-10-08T20:15:40.952Z,639
2022-10-08T20:20:59.405Z,642
2022-10-08T20:26:18.188Z,666
2022-10-08T20:31:36.717Z,693
2022-10-08T20:36:55.507Z,764
2022-10-08T20:42:14.298Z,809
2022-10-08T20:47:32.537Z,838
2022-10-08T20:52:51.355Z,866
2022-10-08T20:58:09.579Z,911
2022-10-08T21:03:27.505Z,943
2022-10-08T21:08:45.971Z,992
2022-10-08T21:14:04.209Z,1026
2022-10-08T21:19:22.657Z,1073
2022-10-08T21:24:40.587Z,1100
2022-10-08T21:29:59.356Z,1122
2022-10-08T21:35:17.514Z,1150
2022-10-08T21:40:35.967Z,1166
2022-10-08T21:45:54.931Z,1177
2022-10-08T21:51:13.826Z,1184
2022-10-08T21:56:32.297Z,1191
2022-10-08T22:01:50.911Z,1208
2022-10-08T22:07:09.134Z,1223
2022-10-08T22:12:27.626Z,1231
2022-10-08T22:17:46.388Z,1236
2022-10-08T22:23:04.849Z,1242
2022-10-08T22:28:23.657Z,1247
2022-10-08T22:33:41.904Z,1248
2022-10-08T22:39:00.127Z,1257
2022-10-08T22:44:18.898Z,1261
2022-10-08T22:49:37.110Z,1269
2022-10-08T22:54:55.301Z,1269
2022-10-08T23:00:13.814Z,1272
2022-10-08T23:05:32.018Z,1277
2022-10-08T23:10:50.229Z,1281
2022-10-08T23:16:09.108Z,1285
2022-10-08T23:21:27.820Z,1291
2022-10-08T23:26:46.014Z,1277
2022-10-08T23:32:04.840Z,1276
2022-10-08T23:37:23.570Z,1285
2022-10-08T23:42:42.058Z,1278
2022-10-08T23:48:00.843Z,1272
2022-10-08T23:53:19.115Z,1277
2022-10-08T23:58:37.572Z,1275
